Etihad Airways Virtual Airport Information Service

Abu Dhabi International Airport

ICAO: OMAA Country: United Arab Emirates
Latitude: 24.433 Longitude: 54.6511
Latest Arrival : ETD279 (VRMM-OMAA) Latest Departure : ETDJUMP (OMAA-OOMS)


WX CaptureLIVE
Data provided by noaa.gov | Recorded at 18:23:20

METAR : OMAA 081800Z 35004KT 330V030 CAVOK 36/27 Q0995 NOSIG

TAF : OMAA 081700Z 0818/1000 29005KT CAVOK BECMG 0818/0820 18006KT BECMG 0904/0906 32012KT BECMG 0918/0920 VRB02KT


Runway Data for OMAA
Data provided by openaviationdata.com

Runway ID Mag Var Hdg Length Elevation Surface ILS Freq ILS Id ILS Slope

Abu Dhabi International Airport, United Arab Emirates
Use only for reference purposes